Time;durP1;ratioP1;P1;durP2;ratioP2;P2;SDS_P1;SDS_P2;PMS_P1;PMS_P2;Temp;Humidity;BMP_temperature;BMP_pressure;BME280_temperature;BME280_humidity;BME280_pressure;Samples;Min_cycle;Max_cycle;Signal;HPM_P1;HPM_P2
2021/11/24 00:00:36;;;;;;;12.17;7.50;;;;;;;;;;5100438;28;20439;-78
2021/11/24 00:03:04;;;;;;;12.57;7.63;;;;;;;;;;5100418;28;20443;-78
2021/11/24 00:05:32;;;;;;;12.43;7.90;;;;;;;;;;5100283;28;20475;-78
2021/11/24 00:08:00;;;;;;;10.90;7.40;;;;;;;;;;5100555;28;20489;-78
2021/11/24 00:10:31;;;;;;;11.40;7.77;;;;;;;;;;5100314;28;20450;-78
2021/11/24 00:12:59;;;;;;;14.07;8.13;;;;;;;;;;5100310;28;20505;-77
2021/11/24 00:15:29;;;;;;;12.87;8.10;;;;;;;;;;5100433;28;20526;-78
2021/11/24 00:17:57;;;;;;;12.10;8.53;;;;;;;;;;5099858;28;20511;-78
2021/11/24 00:20:25;;;;;;;10.10;7.73;;;;;;;;;;5100190;28;20444;-78
2021/11/24 00:22:53;;;;;;;12.60;9.03;;;;;;;;;;5100063;28;20904;-79
2021/11/24 00:25:21;;;;;;;11.03;7.97;;;;;;;;;;5099789;28;20883;-78
2021/11/24 00:27:49;;;;;;;11.83;8.17;;;;;;;;;;5100120;28;20493;-77
2021/11/24 00:30:17;;;;;;;12.83;8.17;;;;;;;;;;5100298;28;20435;-78
2021/11/24 00:32:46;;;;;;;10.67;7.83;;;;;;;;;;5100375;28;20444;-78
2021/11/24 00:35:14;;;;;;;11.20;7.83;;;;;;;;;;5100745;28;20519;-78
2021/11/24 00:37:42;;;;;;;13.83;8.13;;;;;;;;;;5099885;28;20448;-78
2021/11/24 00:40:10;;;;;;;11.50;8.27;;;;;;;;;;5099586;28;20448;-78
2021/11/24 00:42:38;;;;;;;11.53;8.37;;;;;;;;;;5099696;28;20451;-78
2021/11/24 00:45:06;;;;;;;11.97;7.93;;;;;;;;;;5099630;28;20941;-79
2021/11/24 00:47:34;;;;;;;11.10;7.60;;;;;;;;;;5099774;28;20542;-78
2021/11/24 00:50:04;;;;;;;12.53;8.23;;;;;;;;;;5099711;28;20459;-78
2021/11/24 00:52:32;;;;;;;11.33;8.17;;;;;;;;;;5099780;28;20453;-78
2021/11/24 00:55:00;;;;;;;12.27;7.50;;;;;;;;;;5099385;28;20450;-78
2021/11/24 00:57:28;;;;;;;12.90;7.97;;;;;;;;;;5099638;28;20447;-78
2021/11/24 00:59:56;;;;;;;10.20;8.13;;;;;;;;;;5099205;28;20225;-78
2021/11/24 01:02:24;;;;;;;12.10;8.63;;;;;;;;;;5099477;28;20209;-77
2021/11/24 01:04:52;;;;;;;11.53;7.97;;;;;;;;;;5099487;28;20206;-78
2021/11/24 01:07:22;;;;;;;13.73;8.07;;;;;;;;;;5099451;28;20228;-78
2021/11/24 01:09:51;;;;;;;10.73;7.83;;;;;;;;;;5099073;28;20493;-78
2021/11/24 01:12:19;;;;;;;12.27;7.37;;;;;;;;;;5099371;28;20271;-78
2021/11/24 01:14:47;;;;;;;11.40;8.47;;;;;;;;;;5099185;28;20201;-78
2021/11/24 01:17:15;;;;;;;10.50;7.70;;;;;;;;;;5099024;28;20617;-78
2021/11/24 01:19:43;;;;;;;11.47;8.37;;;;;;;;;;5099160;28;20225;-78
2021/11/24 01:22:11;;;;;;;13.43;8.77;;;;;;;;;;5099134;28;20443;-77
2021/11/24 01:24:41;;;;;;;11.83;8.30;;;;;;;;;;5098677;28;20449;-78
2021/11/24 01:27:09;;;;;;;12.67;8.10;;;;;;;;;;5099013;28;20450;-78
2021/11/24 01:29:37;;;;;;;12.63;8.27;;;;;;;;;;5097988;28;20236;-78
2021/11/24 01:32:05;;;;;;;10.90;7.80;;;;;;;;;;5098927;28;20449;-78
2021/11/24 01:34:34;;;;;;;10.70;8.40;;;;;;;;;;5098861;28;20475;-78
2021/11/24 01:37:02;;;;;;;12.60;8.87;;;;;;;;;;5098590;28;20435;-79
2021/11/24 01:39:30;;;;;;;11.00;8.20;;;;;;;;;;5098517;28;20460;-78
2021/11/24 01:41:59;;;;;;;12.80;9.03;;;;;;;;;;5098487;28;20454;-78
2021/11/24 01:44:28;;;;;;;14.13;8.47;;;;;;;;;;5098396;28;20845;-78
2021/11/24 01:46:58;;;;;;;11.53;8.20;;;;;;;;;;5098461;28;20884;-78
2021/11/24 01:49:26;;;;;;;11.43;8.30;;;;;;;;;;5098256;28;20915;-78
2021/11/24 01:51:56;;;;;;;12.17;8.80;;;;;;;;;;5098393;28;20466;-78
2021/11/24 01:54:24;;;;;;;11.83;7.73;;;;;;;;;;5098213;28;20516;-78
2021/11/24 01:56:52;;;;;;;11.37;8.37;;;;;;;;;;5098325;28;21006;-78
2021/11/24 01:59:22;;;;;;;11.77;7.90;;;;;;;;;;5098141;28;20225;-78
2021/11/24 02:01:50;;;;;;;13.27;8.00;;;;;;;;;;5098216;28;21023;-77
2021/11/24 02:04:19;;;;;;;11.87;8.43;;;;;;;;;;5098405;28;20447;-78
2021/11/24 02:06:47;;;;;;;11.40;8.60;;;;;;;;;;5098316;28;20450;-77
2021/11/24 02:09:15;;;;;;;13.03;8.50;;;;;;;;;;5097929;28;20489;-78
2021/11/24 02:11:44;;;;;;;14.43;8.47;;;;;;;;;;5098178;28;20781;-77
2021/11/24 02:14:13;;;;;;;10.97;8.37;;;;;;;;;;5098009;28;20444;-78
2021/11/24 02:16:43;;;;;;;15.27;9.87;;;;;;;;;;5097967;28;20439;-77
2021/11/24 02:19:11;;;;;;;13.50;9.23;;;;;;;;;;5097654;28;20520;-77
2021/11/24 02:21:44;;;;;;;14.03;9.37;;;;;;;;;;5098081;28;20440;-77
2021/11/24 02:24:12;;;;;;;13.03;8.73;;;;;;;;;;5097510;28;20439;-78
2021/11/24 02:26:40;;;;;;;14.37;8.47;;;;;;;;;;5097938;28;20443;-78
2021/11/24 02:29:08;;;;;;;14.70;9.47;;;;;;;;;;5097965;28;20483;-77
2021/11/24 02:31:36;;;;;;;13.77;9.23;;;;;;;;;;5097843;28;20452;-78
2021/11/24 02:34:05;;;;;;;14.00;9.40;;;;;;;;;;5097767;28;20443;-78
2021/11/24 02:36:33;;;;;;;11.60;8.63;;;;;;;;;;5097528;28;20435;-78
2021/11/24 02:39:03;;;;;;;14.37;9.13;;;;;;;;;;5097187;28;20455;-78
2021/11/24 02:41:31;;;;;;;13.13;9.03;;;;;;;;;;5097613;28;20444;-78
2021/11/24 02:44:14;;;;;;;14.77;9.93;;;;;;;;;;5097586;28;20477;-78
2021/11/24 02:46:42;;;;;;;12.40;8.37;;;;;;;;;;5097803;28;20450;-78
2021/11/24 02:49:10;;;;;;;13.60;8.43;;;;;;;;;;5097786;28;20570;-78
2021/11/24 02:51:38;;;;;;;15.20;8.87;;;;;;;;;;5097876;28;20442;-79
2021/11/24 02:54:08;;;;;;;14.77;9.13;;;;;;;;;;5097451;28;20452;-78
2021/11/24 02:56:36;;;;;;;15.27;9.43;;;;;;;;;;5097501;28;20451;-78
2021/11/24 02:59:04;;;;;;;16.80;10.47;;;;;;;;;;5097584;28;20472;-78
2021/11/24 03:01:32;;;;;;;14.23;9.43;;;;;;;;;;5097792;28;20448;-78
2021/11/24 03:04:00;;;;;;;11.53;8.07;;;;;;;;;;5097512;28;20529;-78
2021/11/24 03:06:28;;;;;;;10.87;8.27;;;;;;;;;;5097796;28;20451;-78
2021/11/24 03:08:56;;;;;;;12.33;9.03;;;;;;;;;;5097236;28;20997;-78
2021/11/24 03:11:25;;;;;;;14.63;9.03;;;;;;;;;;5097639;28;20439;-78
2021/11/24 03:13:53;;;;;;;14.27;8.80;;;;;;;;;;5097501;28;20953;-78
2021/11/24 03:16:21;;;;;;;11.77;8.13;;;;;;;;;;5097293;28;20878;-78
2021/11/24 03:18:49;;;;;;;16.30;9.43;;;;;;;;;;5097678;28;20468;-77
2021/11/24 03:21:17;;;;;;;13.97;9.27;;;;;;;;;;5097188;28;20816;-77
2021/11/24 03:23:45;;;;;;;13.90;9.50;;;;;;;;;;5097104;28;20451;-77
2021/11/24 03:26:14;;;;;;;15.20;9.50;;;;;;;;;;5097458;28;20527;-78
2021/11/24 03:28:44;;;;;;;14.03;9.47;;;;;;;;;;5097334;28;20459;-78
2021/11/24 03:31:11;;;;;;;12.67;8.97;;;;;;;;;;5097232;28;20487;-77
2021/11/24 03:33:39;;;;;;;15.70;9.47;;;;;;;;;;5097140;28;20439;-78
2021/11/24 03:36:07;;;;;;;14.70;10.07;;;;;;;;;;5097316;28;20452;-78
2021/11/24 03:38:35;;;;;;;14.90;8.93;;;;;;;;;;5096825;28;20466;-78
2021/11/24 03:41:03;;;;;;;13.27;9.10;;;;;;;;;;5097509;28;20444;-78
2021/11/24 03:43:32;;;;;;;15.10;10.17;;;;;;;;;;5096960;28;20477;-78
2021/11/24 03:46:01;;;;;;;15.83;9.27;;;;;;;;;;5097354;28;20443;-77
2021/11/24 03:48:29;;;;;;;15.43;9.20;;;;;;;;;;5097111;28;20531;-77
2021/11/24 03:50:57;;;;;;;15.80;9.57;;;;;;;;;;5095300;28;20566;-77
2021/11/24 03:53:25;;;;;;;13.80;9.57;;;;;;;;;;5096759;28;20473;-78
2021/11/24 03:55:53;;;;;;;16.87;9.87;;;;;;;;;;5099480;28;20450;-78
2021/11/24 03:58:21;;;;;;;13.33;8.77;;;;;;;;;;5099161;28;20455;-78
2021/11/24 04:00:49;;;;;;;18.53;10.87;;;;;;;;;;5099173;28;20470;-78
2021/11/24 04:03:19;;;;;;;13.77;9.73;;;;;;;;;;5096484;28;20463;-78
2021/11/24 04:05:52;;;;;;;14.67;9.50;;;;;;;;;;5099239;28;20473;-77
2021/11/24 04:08:20;;;;;;;14.00;9.67;;;;;;;;;;5096863;28;20495;-78
2021/11/24 04:10:48;;;;;;;13.33;9.30;;;;;;;;;;5099260;28;20471;-77
2021/11/24 04:13:16;;;;;;;17.07;10.47;;;;;;;;;;5097758;28;20457;-77
2021/11/24 04:15:44;;;;;;;17.10;9.27;;;;;;;;;;5099165;28;20447;-77
2021/11/24 04:18:12;;;;;;;14.83;9.73;;;;;;;;;;5099129;28;20524;-77
2021/11/24 04:20:41;;;;;;;14.07;9.60;;;;;;;;;;5099128;28;20459;-77
2021/11/24 04:23:09;;;;;;;16.40;9.77;;;;;;;;;;5098863;28;20443;-77
2021/11/24 04:25:37;;;;;;;13.27;9.03;;;;;;;;;;5098255;28;20436;-77
2021/11/24 04:28:05;;;;;;;17.17;10.87;;;;;;;;;;5098664;28;20464;-77
2021/11/24 04:30:33;;;;;;;13.50;9.00;;;;;;;;;;5098288;28;20490;-77
2021/11/24 04:33:01;;;;;;;16.77;10.37;;;;;;;;;;5099101;28;20476;-77
2021/11/24 04:35:29;;;;;;;13.53;9.67;;;;;;;;;;5099359;28;20447;-77
2021/11/24 04:37:59;;;;;;;15.97;9.47;;;;;;;;;;5099619;28;20450;-77
2021/11/24 04:40:27;;;;;;;14.23;9.20;;;;;;;;;;5100003;28;20519;-77
2021/11/24 04:42:55;;;;;;;15.50;9.77;;;;;;;;;;5099766;28;20454;-77
2021/11/24 04:45:24;;;;;;;16.93;9.27;;;;;;;;;;5100026;28;20490;-77
2021/11/24 04:47:52;;;;;;;14.27;8.93;;;;;;;;;;5100162;28;20449;-77
2021/11/24 04:50:20;;;;;;;14.77;9.00;;;;;;;;;;5099911;28;20479;-77
2021/11/24 04:52:48;;;;;;;14.63;9.73;;;;;;;;;;5099872;28;20444;-77
2021/11/24 04:55:18;;;;;;;16.07;10.07;;;;;;;;;;5098311;28;20446;-77
2021/11/24 04:57:47;;;;;;;17.67;10.67;;;;;;;;;;5096868;28;20458;-77
2021/11/24 05:00:17;;;;;;;14.03;9.23;;;;;;;;;;5099099;28;20466;-77
2021/11/24 05:02:46;;;;;;;14.60;9.33;;;;;;;;;;5097702;28;20453;-77
2021/11/24 05:05:14;;;;;;;16.07;9.83;;;;;;;;;;5098689;28;20458;-77
2021/11/24 05:07:42;;;;;;;13.73;8.33;;;;;;;;;;5098981;28;20498;-77
2021/11/24 05:10:10;;;;;;;16.87;10.90;;;;;;;;;;5098708;28;20567;-77
2021/11/24 05:12:40;;;;;;;15.17;10.10;;;;;;;;;;5098039;28;21998;-77
2021/11/24 05:15:11;;;;;;;14.17;8.70;;;;;;;;;;5093667;28;20507;-75
2021/11/24 05:17:39;;;;;;;12.93;9.17;;;;;;;;;;5087119;28;20459;-79
2021/11/24 05:20:07;;;;;;;13.63;9.20;;;;;;;;;;5083729;28;20454;-74
2021/11/24 05:22:35;;;;;;;16.07;9.60;;;;;;;;;;5086778;28;20446;-78
2021/11/24 05:25:03;;;;;;;16.13;9.97;;;;;;;;;;5098797;28;20447;-79
2021/11/24 05:27:31;;;;;;;18.13;10.23;;;;;;;;;;5099263;28;20443;-75
2021/11/24 05:30:01;;;;;;;13.43;9.63;;;;;;;;;;5098792;28;20463;-81
2021/11/24 05:32:29;;;;;;;15.10;10.23;;;;;;;;;;5099131;28;20509;-80
2021/11/24 05:34:57;;;;;;;12.73;9.60;;;;;;;;;;5098389;28;20558;-80
2021/11/24 05:37:25;;;;;;;11.90;8.70;;;;;;;;;;5098908;28;20439;-80
2021/11/24 05:39:53;;;;;;;14.50;9.73;;;;;;;;;;5098681;28;20460;-79
2021/11/24 05:42:21;;;;;;;15.17;9.20;;;;;;;;;;5099020;28;20440;-80
2021/11/24 05:44:51;;;;;;;17.87;9.70;;;;;;;;;;5098532;28;20542;-80
2021/11/24 05:50:17;;;;;;;14.73;9.93;;;;;;;;;;5087045;28;20440;-79
2021/11/24 05:52:45;;;;;;;19.47;11.00;;;;;;;;;;5099397;28;20440;-79
2021/11/24 05:55:13;;;;;;;17.53;10.33;;;;;;;;;;5098526;28;20452;-79
2021/11/24 05:57:41;;;;;;;27.17;11.90;;;;;;;;;;5098094;28;20443;-78
2021/11/24 06:00:10;;;;;;;18.40;10.33;;;;;;;;;;5098737;28;20450;-79
2021/11/24 06:02:39;;;;;;;14.83;9.93;;;;;;;;;;5098401;28;20470;-78
2021/11/24 06:05:08;;;;;;;16.43;9.43;;;;;;;;;;5098104;28;20863;-79
2021/11/24 06:07:36;;;;;;;14.83;9.60;;;;;;;;;;5096368;28;20462;-73
2021/11/24 06:10:04;;;;;;;16.23;9.73;;;;;;;;;;5087475;28;20462;-73
2021/11/24 06:12:33;;;;;;;14.60;9.93;;;;;;;;;;5097587;28;20485;-74
2021/11/24 06:15:01;;;;;;;16.67;9.67;;;;;;;;;;5089518;28;20444;-74
2021/11/24 06:17:29;;;;;;;17.27;10.70;;;;;;;;;;5097445;28;20807;-73
2021/11/24 06:19:58;;;;;;;16.53;10.63;;;;;;;;;;5097662;28;20466;-73
2021/11/24 06:22:26;;;;;;;15.87;9.30;;;;;;;;;;5098093;28;20443;-73
2021/11/24 06:24:54;;;;;;;15.60;10.47;;;;;;;;;;5097566;28;20440;-73
2021/11/24 06:27:22;;;;;;;14.83;9.80;;;;;;;;;;5097777;28;20444;-73
2021/11/24 06:29:50;;;;;;;14.83;10.10;;;;;;;;;;5088393;28;20552;-81
2021/11/24 06:32:18;;;;;;;20.33;9.80;;;;;;;;;;5085628;28;20491;-74
2021/11/24 06:34:46;;;;;;;18.30;10.57;;;;;;;;;;5084684;28;20442;-75
2021/11/24 06:37:15;;;;;;;16.07;10.17;;;;;;;;;;5087532;28;20490;-74
2021/11/24 06:39:44;;;;;;;16.10;9.73;;;;;;;;;;5086892;28;20467;-74
2021/11/24 06:42:12;;;;;;;17.07;9.57;;;;;;;;;;5087250;28;20534;-78
2021/11/24 06:44:39;;;;;;;12.57;9.27;;;;;;;;;;5082261;28;20833;-79
2021/11/24 06:47:07;;;;;;;17.40;10.33;;;;;;;;;;5087119;28;20443;-79
2021/11/24 06:49:35;;;;;;;17.13;10.37;;;;;;;;;;5097525;28;20969;-78
2021/11/24 06:52:04;;;;;;;17.77;10.30;;;;;;;;;;5097089;28;20914;-78
2021/11/24 06:54:34;;;;;;;16.17;10.43;;;;;;;;;;5085020;28;20435;-78
2021/11/24 06:57:02;;;;;;;16.30;10.40;;;;;;;;;;5086765;28;20504;-75
2021/11/24 06:59:30;;;;;;;17.60;10.37;;;;;;;;;;5099603;28;20459;-77
2021/11/24 07:01:58;;;;;;;15.47;10.50;;;;;;;;;;5104010;28;20440;-78
2021/11/24 07:04:26;;;;;;;16.83;10.70;;;;;;;;;;5107196;28;20435;-78
2021/11/24 07:06:54;;;;;;;15.80;10.17;;;;;;;;;;5097007;28;20855;-77
2021/11/24 07:09:23;;;;;;;16.90;10.50;;;;;;;;;;5097052;28;20463;-78
2021/11/24 07:11:53;;;;;;;18.97;9.67;;;;;;;;;;5097173;28;20522;-77
2021/11/24 07:14:21;;;;;;;18.90;10.97;;;;;;;;;;5097377;28;20504;-78
2021/11/24 07:16:49;;;;;;;17.67;11.10;;;;;;;;;;5097356;28;20453;-78
2021/11/24 07:19:21;;;;;;;15.20;10.93;;;;;;;;;;5096753;28;20967;-79
2021/11/24 07:21:49;;;;;;;16.67;10.80;;;;;;;;;;5097034;28;20443;-78
2021/11/24 07:24:18;;;;;;;15.70;10.33;;;;;;;;;;5096873;28;20450;-78
2021/11/24 07:26:46;;;;;;;17.23;10.73;;;;;;;;;;5097193;28;20446;-77
2021/11/24 07:29:15;;;;;;;17.70;10.63;;;;;;;;;;5099777;28;20455;-78
2021/11/24 07:31:44;;;;;;;17.90;10.27;;;;;;;;;;5101213;28;20483;-79
2021/11/24 07:34:13;;;;;;;18.77;11.17;;;;;;;;;;5087421;28;20461;-77
2021/11/24 07:36:41;;;;;;;20.97;11.43;;;;;;;;;;5100863;28;20439;-77
2021/11/24 07:39:10;;;;;;;20.47;11.93;;;;;;;;;;5097203;28;20558;-77
2021/11/24 07:41:38;;;;;;;16.17;10.67;;;;;;;;;;5100282;28;20942;-79
2021/11/24 07:44:06;;;;;;;17.83;11.33;;;;;;;;;;5100308;28;20471;-78
2021/11/24 07:46:36;;;;;;;16.97;10.50;;;;;;;;;;5100372;28;20811;-79
2021/11/24 07:49:04;;;;;;;19.57;11.47;;;;;;;;;;5100417;28;20491;-78
2021/11/24 07:51:32;;;;;;;19.30;11.53;;;;;;;;;;5100506;28;20443;-78
2021/11/24 07:54:01;;;;;;;19.87;12.20;;;;;;;;;;5100035;28;20509;-77
2021/11/24 07:56:29;;;;;;;17.30;11.10;;;;;;;;;;5100225;28;21007;-77
2021/11/24 07:58:57;;;;;;;21.00;10.73;;;;;;;;;;5085005;28;20831;-76
2021/11/24 08:01:29;;;;;;;18.87;11.23;;;;;;;;;;5080845;28;20441;-76
2021/11/24 08:03:59;;;;;;;16.53;11.27;;;;;;;;;;5104001;28;20439;-76
2021/11/24 08:06:27;;;;;;;23.17;10.90;;;;;;;;;;5112098;28;20498;-76
2021/11/24 08:08:55;;;;;;;15.47;10.47;;;;;;;;;;5101063;28;20550;-77
2021/11/24 08:11:23;;;;;;;19.63;11.87;;;;;;;;;;5100533;28;20457;-76
2021/11/24 08:13:51;;;;;;;20.13;12.13;;;;;;;;;;5099953;28;20566;-76
2021/11/24 08:16:19;;;;;;;16.63;10.93;;;;;;;;;;5100572;28;20534;-76
2021/11/24 08:18:47;;;;;;;15.10;10.57;;;;;;;;;;5099777;28;20494;-77
2021/11/24 08:21:17;;;;;;;16.60;10.63;;;;;;;;;;5099622;28;20950;-76
2021/11/24 08:23:45;;;;;;;18.33;11.23;;;;;;;;;;5100168;28;20478;-77
2021/11/24 08:26:14;;;;;;;17.23;10.70;;;;;;;;;;5100031;28;20492;-78
2021/11/24 08:28:42;;;;;;;19.13;11.03;;;;;;;;;;5099813;28;20497;-78
2021/11/24 08:31:10;;;;;;;16.87;10.70;;;;;;;;;;5099671;28;20440;-76
2021/11/24 08:33:38;;;;;;;15.53;10.97;;;;;;;;;;5099622;28;20483;-77
2021/11/24 08:36:06;;;;;;;17.03;11.17;;;;;;;;;;5099789;28;20522;-76
2021/11/24 08:38:36;;;;;;;22.50;11.27;;;;;;;;;;5098861;28;20550;-76
2021/11/24 08:41:04;;;;;;;15.53;9.47;;;;;;;;;;5097387;28;20931;-77
2021/11/24 08:43:33;;;;;;;14.93;10.43;;;;;;;;;;5099427;28;20551;-77
2021/11/24 08:46:01;;;;;;;15.17;10.27;;;;;;;;;;5099591;28;20447;-77
2021/11/24 08:48:29;;;;;;;21.43;11.90;;;;;;;;;;5099208;28;20472;-77
2021/11/24 08:50:58;;;;;;;18.00;11.17;;;;;;;;;;5099362;28;21008;-77
2021/11/24 08:53:28;;;;;;;16.70;10.70;;;;;;;;;;5098781;28;20582;-77
2021/11/24 08:55:57;;;;;;;18.50;10.93;;;;;;;;;;5088222;28;20479;-77
2021/11/24 08:58:25;;;;;;;19.50;11.13;;;;;;;;;;5099218;28;20977;-75
2021/11/24 09:00:53;;;;;;;19.73;12.03;;;;;;;;;;5101417;28;20444;-77
2021/11/24 09:03:22;;;;;;;19.93;12.10;;;;;;;;;;5107523;28;20934;-78
2021/11/24 09:05:50;;;;;;;21.70;12.33;;;;;;;;;;5103004;28;20443;-78
2021/11/24 09:08:18;;;;;;;21.27;11.93;;;;;;;;;;5098835;28;20830;-78
2021/11/24 09:10:46;;;;;;;23.10;12.40;;;;;;;;;;5099369;28;20832;-78
2021/11/24 09:13:16;;;;;;;16.90;11.40;;;;;;;;;;5099281;28;20491;-78
2021/11/24 09:15:45;;;;;;;22.27;12.47;;;;;;;;;;5099176;28;20530;-77
2021/11/24 09:18:14;;;;;;;17.70;11.00;;;;;;;;;;5099224;28;20472;-78
2021/11/24 09:20:43;;;;;;;20.27;10.77;;;;;;;;;;5099142;28;20531;-79
2021/11/24 09:23:13;;;;;;;19.20;12.17;;;;;;;;;;5098444;28;21003;-78
2021/11/24 09:25:49;;;;;;;23.00;11.70;;;;;;;;;;5098777;28;21028;-77
2021/11/24 09:28:20;;;;;;;16.63;10.93;;;;;;;;;;5098643;28;20471;-77
2021/11/24 09:30:48;;;;;;;22.63;12.33;;;;;;;;;;5098590;28;20443;-77
2021/11/24 09:33:17;;;;;;;20.33;12.13;;;;;;;;;;5098886;28;20520;-77
2021/11/24 09:35:45;;;;;;;22.27;12.20;;;;;;;;;;5098514;28;20845;-79
2021/11/24 09:38:13;;;;;;;20.40;12.40;;;;;;;;;;5098325;28;20993;-78
2021/11/24 09:40:42;;;;;;;21.70;12.27;;;;;;;;;;5093016;28;20447;-78
2021/11/24 09:43:12;;;;;;;22.17;12.63;;;;;;;;;;5097772;28;20502;-77
2021/11/24 09:45:44;;;;;;;20.07;11.57;;;;;;;;;;5098642;28;20466;-79
2021/11/24 09:48:14;;;;;;;20.17;12.27;;;;;;;;;;5098543;28;20459;-78
2021/11/24 09:50:43;;;;;;;19.97;12.53;;;;;;;;;;5097298;28;20451;-77
2021/11/24 09:53:12;;;;;;;22.50;12.77;;;;;;;;;;5098228;28;20483;-77
2021/11/24 09:55:41;;;;;;;21.37;12.30;;;;;;;;;;5098008;28;20444;-77
2021/11/24 09:58:09;;;;;;;22.27;12.87;;;;;;;;;;5098210;28;20468;-79
2021/11/24 10:00:39;;;;;;;25.73;12.67;;;;;;;;;;5099444;28;20436;-78
2021/11/24 10:03:08;;;;;;;20.53;11.67;;;;;;;;;;5110000;28;20923;-80
2021/11/24 10:05:36;;;;;;;23.23;13.43;;;;;;;;;;5102242;28;20555;-78
2021/11/24 10:08:06;;;;;;;19.57;12.67;;;;;;;;;;5112149;28;20513;-79
2021/11/24 10:10:35;;;;;;;20.57;12.70;;;;;;;;;;5099947;28;20467;-79
2021/11/24 10:13:03;;;;;;;18.23;12.73;;;;;;;;;;5097855;28;20475;-79
2021/11/24 10:15:36;;;;;;;20.10;12.63;;;;;;;;;;5095762;28;20447;-80
2021/11/24 10:18:20;;;;;;;23.20;13.10;;;;;;;;;;5088147;28;20475;-79
2021/11/24 10:20:50;;;;;;;20.97;12.40;;;;;;;;;;5097667;28;20473;-79
2021/11/24 10:23:22;;;;;;;23.20;13.53;;;;;;;;;;5097335;28;20811;-78
2021/11/24 10:25:50;;;;;;;26.20;13.90;;;;;;;;;;5098041;28;20497;-78
2021/11/24 10:28:26;;;;;;;19.73;13.10;;;;;;;;;;5097659;28;20456;-79
2021/11/24 10:30:55;;;;;;;20.43;12.33;;;;;;;;;;5097800;28;20443;-79
2021/11/24 10:33:29;;;;;;;20.77;12.20;;;;;;;;;;5097677;28;20490;-78
2021/11/24 10:36:05;;;;;;;20.47;12.83;;;;;;;;;;5097511;28;20526;-78
2021/11/24 10:38:38;;;;;;;18.53;12.30;;;;;;;;;;5097300;28;20471;-77
2021/11/24 10:41:08;;;;;;;20.27;12.83;;;;;;;;;;5093713;28;20990;-74
2021/11/24 10:43:41;;;;;;;21.20;12.60;;;;;;;;;;5106081;28;20488;-78
2021/11/24 10:46:13;;;;;;;21.30;12.43;;;;;;;;;;5104420;28;20927;-78
2021/11/24 10:48:42;;;;;;;22.03;13.40;;;;;;;;;;5100717;28;20974;-79
2021/11/24 10:51:30;;;;;;;20.10;12.47;;;;;;;;;;5097381;28;20523;-79
2021/11/24 10:54:05;;;;;;;21.60;11.87;;;;;;;;;;5097153;28;20483;-80
2021/11/24 10:56:33;;;;;;;21.13;12.60;;;;;;;;;;5097665;28;20518;-80
2021/11/24 10:59:18;;;;;;;19.53;12.13;;;;;;;;;;5097443;28;20459;-79
2021/11/24 11:01:46;;;;;;;18.97;13.00;;;;;;;;;;5105351;28;20439;-80
2021/11/24 11:04:16;;;;;;;21.97;12.47;;;;;;;;;;5105278;28;20201;-79
2021/11/24 11:06:44;;;;;;;24.47;12.77;;;;;;;;;;5110288;28;20199;-79
2021/11/24 11:09:12;;;;;;;24.00;13.40;;;;;;;;;;5107001;28;20582;-79
2021/11/24 11:11:40;;;;;;;23.60;13.77;;;;;;;;;;5103101;28;20888;-80
2021/11/24 11:14:19;;;;;;;23.27;13.37;;;;;;;;;;5101546;28;20229;-79
2021/11/24 11:16:48;;;;;;;20.80;12.27;;;;;;;;;;5101333;28;20439;-78
2021/11/24 11:19:34;;;;;;;24.10;13.73;;;;;;;;;;5101213;28;20463;-81
2021/11/24 11:22:03;;;;;;;18.37;11.93;;;;;;;;;;5091079;28;20451;-79
2021/11/24 11:24:32;;;;;;;18.93;13.03;;;;;;;;;;5101451;28;20284;-79
2021/11/24 11:27:00;;;;;;;22.33;14.07;;;;;;;;;;5101265;28;20247;-81
2021/11/24 11:29:28;;;;;;;19.57;13.33;;;;;;;;;;5104733;28;20240;-75
2021/11/24 11:32:01;;;;;;;23.57;14.43;;;;;;;;;;5108982;28;20205;-82
2021/11/24 11:34:30;;;;;;;22.20;12.63;;;;;;;;;;5107663;28;20224;-79
2021/11/24 11:36:58;;;;;;;24.50;13.73;;;;;;;;;;5109280;28;20218;-80
2021/11/24 11:39:28;;;;;;;27.50;13.43;;;;;;;;;;5100810;28;20268;-80
2021/11/24 11:41:57;;;;;;;21.30;14.03;;;;;;;;;;5101347;28;20202;-79
2021/11/24 11:44:45;;;;;;;25.13;14.03;;;;;;;;;;5100726;28;20240;-78
2021/11/24 11:47:41;;;;;;;20.83;13.90;;;;;;;;;;5100446;28;20691;-78
2021/11/24 11:50:44;;;;;;;20.87;12.87;;;;;;;;;;5100850;28;20661;-75
2021/11/24 11:53:12;;;;;;;22.10;13.63;;;;;;;;;;5100252;28;20706;-78
2021/11/24 11:55:42;;;;;;;20.90;13.23;;;;;;;;;;5087539;28;20225;-80
2021/11/24 11:58:23;;;;;;;25.17;13.77;;;;;;;;;;5086466;28;20260;-81
2021/11/24 12:01:07;;;;;;;20.60;12.73;;;;;;;;;;5087350;28;20267;-80
2021/11/24 12:03:55;;;;;;;21.93;12.97;;;;;;;;;;5089040;28;20482;-80
2021/11/24 12:06:26;;;;;;;22.77;13.73;;;;;;;;;;5087052;28;20870;-78
2021/11/24 12:09:14;;;;;;;21.07;13.20;;;;;;;;;;5084474;28;20460;-80
2021/11/24 12:12:01;;;;;;;21.97;12.47;;;;;;;;;;5087536;28;20440;-78
2021/11/24 12:14:47;;;;;;;20.93;12.60;;;;;;;;;;5083518;28;20479;-78
2021/11/24 12:17:47;;;;;;;20.60;12.40;;;;;;;;;;5085300;28;20442;-78
2021/11/24 12:20:33;;;;;;;22.23;12.27;;;;;;;;;;5084716;28;20285;-79
2021/11/24 12:23:25;;;;;;;21.93;13.27;;;;;;;;;;5089409;28;20558;-78
2021/11/24 12:25:55;;;;;;;20.43;13.57;;;;;;;;;;5087268;28;20209;-81
2021/11/24 12:28:24;;;;;;;17.70;11.73;;;;;;;;;;5093097;28;20249;-80
2021/11/24 12:30:54;;;;;;;21.73;12.97;;;;;;;;;;5095384;28;20542;-79
2021/11/24 12:33:24;;;;;;;22.43;12.63;;;;;;;;;;5100168;28;20209;-79
2021/11/24 12:35:53;;;;;;;19.93;12.03;;;;;;;;;;5099530;28;20837;-79
2021/11/24 12:38:26;;;;;;;18.47;12.70;;;;;;;;;;5099831;28;20308;-79
2021/11/24 12:40:56;;;;;;;23.23;12.20;;;;;;;;;;5099886;28;20293;-79
2021/11/24 12:43:26;;;;;;;20.03;13.43;;;;;;;;;;5099841;28;20686;-79
2021/11/24 12:46:01;;;;;;;20.47;12.90;;;;;;;;;;5099987;28;20207;-79
2021/11/24 12:48:34;;;;;;;20.77;12.83;;;;;;;;;;5099822;28;20235;-79
2021/11/24 12:51:07;;;;;;;23.13;13.17;;;;;;;;;;5099952;28;20233;-79
2021/11/24 12:53:37;;;;;;;20.40;12.43;;;;;;;;;;5099507;28;20281;-80
2021/11/24 12:56:24;;;;;;;19.70;12.50;;;;;;;;;;5099737;28;20278;-80
2021/11/24 12:58:52;;;;;;;20.30;12.50;;;;;;;;;;5099118;28;20650;-79
2021/11/24 13:01:24;;;;;;;23.43;13.23;;;;;;;;;;5094481;28;20205;-79
2021/11/24 13:03:59;;;;;;;23.33;12.67;;;;;;;;;;5087246;28;20210;-80
2021/11/24 13:06:27;;;;;;;21.37;13.87;;;;;;;;;;5086832;28;20189;-79
2021/11/24 13:09:02;;;;;;;23.27;13.17;;;;;;;;;;5086929;28;20680;-81
2021/11/24 13:11:52;;;;;;;19.07;12.63;;;;;;;;;;5095600;28;20205;-79
2021/11/24 13:14:22;;;;;;;20.83;13.20;;;;;;;;;;5099250;28;20296;-79
2021/11/24 13:17:05;;;;;;;20.40;12.77;;;;;;;;;;5099041;28;20592;-79
2021/11/24 13:19:39;;;;;;;21.93;12.40;;;;;;;;;;5099282;28;20227;-79
2021/11/24 13:22:07;;;;;;;19.07;12.43;;;;;;;;;;5099305;28;20212;-79
2021/11/24 13:24:39;;;;;;;25.27;12.60;;;;;;;;;;5098602;28;20201;-81
2021/11/24 13:27:07;;;;;;;21.53;13.30;;;;;;;;;;5098162;28;20297;-79
2021/11/24 13:29:36;;;;;;;18.97;11.23;;;;;;;;;;5098577;28;20726;-75
2021/11/24 13:32:05;;;;;;;21.00;12.67;;;;;;;;;;5099055;28;20208;-77
2021/11/24 13:34:34;;;;;;;19.63;13.03;;;;;;;;;;5100651;28;20561;-80
2021/11/24 13:37:04;;;;;;;17.87;12.37;;;;;;;;;;5104393;28;20215;-75
2021/11/24 13:39:32;;;;;;;25.70;12.53;;;;;;;;;;5103415;28;20676;-76
2021/11/24 13:42:08;;;;;;;26.87;13.13;;;;;;;;;;5102872;28;20206;-78
2021/11/24 13:44:45;;;;;;;19.47;13.00;;;;;;;;;;5083724;28;20233;-79
2021/11/24 13:47:13;;;;;;;20.43;12.30;;;;;;;;;;5086413;28;20288;-79
2021/11/24 13:49:43;;;;;;;18.50;11.87;;;;;;;;;;5103156;28;20216;-78
2021/11/24 13:52:13;;;;;;;19.60;13.07;;;;;;;;;;5100935;28;20202;-78
2021/11/24 13:54:42;;;;;;;18.83;12.10;;;;;;;;;;5097251;28;20227;-79
2021/11/24 13:57:10;;;;;;;20.10;12.67;;;;;;;;;;5097788;28;20292;-78
2021/11/24 13:59:40;;;;;;;19.30;12.20;;;;;;;;;;5098038;28;20253;-79
2021/11/24 14:02:09;;;;;;;19.87;11.83;;;;;;;;;;5097820;28;20603;-79
2021/11/24 14:04:39;;;;;;;20.00;13.43;;;;;;;;;;5097787;28;20780;-79
2021/11/24 14:07:18;;;;;;;22.37;13.23;;;;;;;;;;5097719;28;20209;-78
2021/11/24 14:09:46;;;;;;;19.07;11.73;;;;;;;;;;5097449;28;20225;-79
2021/11/24 14:12:22;;;;;;;17.80;12.37;;;;;;;;;;5098082;28;20208;-79
2021/11/24 14:14:51;;;;;;;24.43;13.40;;;;;;;;;;5097677;28;20207;-78
2021/11/24 14:17:33;;;;;;;20.47;12.03;;;;;;;;;;5098049;28;20209;-79
2021/11/24 14:20:04;;;;;;;17.17;11.67;;;;;;;;;;5097789;28;20603;-79
2021/11/24 14:22:40;;;;;;;19.33;12.23;;;;;;;;;;5097971;28;20205;-79
2021/11/24 14:25:11;;;;;;;19.70;13.07;;;;;;;;;;5098057;28;20566;-79
2021/11/24 14:27:39;;;;;;;18.13;11.47;;;;;;;;;;5097972;28;20209;-79
2021/11/24 14:30:08;;;;;;;19.80;12.37;;;;;;;;;;5097922;28;20207;-79
2021/11/24 14:32:38;;;;;;;23.33;13.20;;;;;;;;;;5098141;28;20219;-79
2021/11/24 14:35:06;;;;;;;18.67;12.17;;;;;;;;;;5097762;28;20205;-79
2021/11/24 14:37:34;;;;;;;19.50;12.50;;;;;;;;;;5097265;28;20201;-79
2021/11/24 14:40:14;;;;;;;20.90;12.47;;;;;;;;;;5098068;28;20236;-79